< Typhoon 200115 2001 Season Typhoon 200117 >
Typhoon 200116 (NARI)
General InformationTrack Information on Google MapsDetailed Wind InformationList of All Images || NewsDisaster Info.ResourceGoogle EarthGE AnimationAtom FeedGeoJSON
Detalied Best Track (Time Zone = UTC)
Year Month Day Hour Lat. Long. Pressure (hPa) Wind (kt) Class Image Chart
2001 9 5 00 23.4 124.6 1004 0 2 Image Chart
2001 9 5 06 23.5 125.1 1002 0 2 Image Chart
2001 9 5 12 24.3 123.9 1002 0 2 Image Chart
2001 9 5 18 24.7 123.6 1000 0 2 Image Chart
2001 9 6 00 25.1 123.8 998 35 3 Image Chart
2001 9 6 03 25.2 124.1 996 35 3 Image Chart
2001 9 6 06 25.3 124.5 994 35 3 Image Chart
2001 9 6 09 25.5 125.0 994 35 3 Image Chart
2001 9 6 12 25.8 125.7 994 35 3 Image Chart
2001 9 6 15 26.0 126.4 992 40 3 Image Chart
2001 9 6 18 26.1 127.0 992 40 3 Image Chart
2001 9 6 21 26.1 127.5 985 50 4 Image Chart
2001 9 6 22 26.1 127.6 985 50 4 Image Chart
2001 9 7 00 26.2 127.9 985 50 4 Image Chart
2001 9 7 03 26.4 128.1 985 50 4 Image Chart
2001 9 7 06 26.4 128.3 985 50 4 Image Chart
2001 9 7 09 26.4 128.3 980 55 4 Image Chart
2001 9 7 12 26.3 128.3 980 55 4 Image Chart
2001 9 7 15 26.2 128.1 975 60 4 Image Chart
2001 9 7 18 26.3 127.8 975 60 4 Image Chart
2001 9 7 21 26.6 127.7 975 60 4 Image Chart
2001 9 8 00 26.8 127.3 975 60 4 Image Chart
2001 9 8 03 27.0 127.0 975 60 4 Image Chart
2001 9 8 06 27.2 126.7 975 60 4 Image Chart
2001 9 8 09 27.2 126.3 975 60 4 Image Chart
2001 9 8 12 27.2 125.9 975 60 4 Image Chart
2001 9 8 15 27.2 125.5 975 60 4 Image Chart
2001 9 8 18 27.2 125.2 975 60 4 Image Chart
2001 9 8 21 27.3 125.2 975 60 4 Image Chart
2001 9 9 00 27.3 125.2 980 55 4 Image Chart
2001 9 9 03 27.3 125.0 980 55 4 Image Chart
2001 9 9 06 27.3 124.9 980 55 4 Image Chart
2001 9 9 09 27.3 125.1 975 60 4 Image Chart
2001 9 9 12 27.3 125.0 970 60 4 Image Chart
2001 9 9 15 27.2 125.0 970 60 4 Image Chart
2001 9 9 18 27.2 125.0 970 60 4 Image Chart
2001 9 9 21 27.0 125.0 970 60 4 Image Chart
2001 9 10 00 26.8 124.9 970 60 4 Image Chart
2001 9 10 03 26.6 125.1 970 60 4 Image Chart
2001 9 10 06 26.4 125.3 970 60 4 Image Chart
2001 9 10 09 26.3 125.5 970 60 4 Image Chart
2001 9 10 12 26.2 125.8 970 60 4 Image Chart
2001 9 10 15 26.2 126.1 970 60 4 Image Chart
2001 9 10 18 26.2 126.3 970 60 4 Image Chart
2001 9 10 21 26.2 126.5 970 60 4 Image Chart
2001 9 11 00 26.2 126.7 970 65 5 Image Chart
2001 9 11 03 26.2 126.9 965 70 5 Image Chart
2001 9 11 06 26.3 127.1 960 75 5 Image Chart
2001 9 11 09 26.4 127.2 960 75 5 Image Chart
2001 9 11 12 26.4 127.2 960 75 5 Image Chart
2001 9 11 15 26.4 127.1 960 75 5 Image Chart
2001 9 11 18 26.4 127.1 965 70 5 Image Chart
2001 9 11 21 26.4 127.1 970 65 5 Image Chart
2001 9 12 00 26.4 127.1 970 65 5 Image Chart
2001 9 12 03 26.4 127.1 975 60 4 Image Chart
2001 9 12 06 26.4 127.1 975 60 4 Image Chart
2001 9 12 09 26.2 127.2 975 60 4 Image Chart
2001 9 12 12 26.3 127.2 975 60 4 Image Chart
2001 9 12 15 26.3 127.0 975 60 4 Image Chart
2001 9 12 18 26.4 126.8 975 60 4 Image Chart
2001 9 12 21 26.5 126.6 975 60 4 Image Chart
2001 9 13 00 26.6 126.5 975 60 4 Image Chart
2001 9 13 03 26.7 126.3 975 60 4 Image Chart
2001 9 13 06 26.9 126.2 975 60 4 Image Chart
2001 9 13 09 27.1 126.1 975 60 4 Image Chart
2001 9 13 12 27.2 125.9 975 60 4 Image Chart
2001 9 13 18 27.4 125.7 975 60 4 Image Chart
2001 9 14 00 27.6 125.3 975 60 4 Image Chart
2001 9 14 06 27.4 125.0 975 60 4 Image Chart
2001 9 14 12 27.1 124.8 975 60 4 Image Chart
2001 9 14 18 26.8 124.5 980 55 4 Image Chart
2001 9 15 00 26.4 124.3 975 60 4 Image Chart
2001 9 15 06 26.1 124.0 970 65 5 Image Chart
2001 9 15 12 25.9 123.8 970 65 5 Image Chart
2001 9 15 15 25.8 123.6 970 65 5 Image Chart
2001 9 15 18 25.7 123.5 965 70 5 Image Chart
2001 9 15 21 25.6 123.4 965 70 5 Image Chart
2001 9 16 00 25.5 123.1 960 75 5 Image Chart
2001 9 16 03 25.5 122.8 960 75 5 Image Chart
2001 9 16 06 25.3 122.5 960 75 5 Image Chart
2001 9 16 12 25.1 122.1 970 65 5 Image Chart
2001 9 16 18 24.7 121.6 990 40 3 Image Chart
2001 9 17 00 24.3 121.5 994 35 3 Image Chart
2001 9 17 06 23.9 121.8 998 0 2 Image Chart
2001 9 17 12 23.6 122.1 1000 0 2 Image Chart
2001 9 17 18 23.6 122.2 998 0 2 Image Chart
2001 9 18 00 23.5 122.3 1000 0 2 Image Chart
2001 9 18 06 23.5 122.0 998 0 2 Image Chart
2001 9 18 12 23.3 121.7 998 0 2 Image Chart
2001 9 18 18 22.8 119.8 998 0 2 Image Chart
2001 9 19 00 22.7 119.5 998 0 2 Image Chart
2001 9 19 06 22.4 118.9 996 0 2 Image Chart
2001 9 19 12 22.5 118.6 998 0 2 Image Chart
2001 9 19 18 22.7 118.3 992 40 3 Image Chart
2001 9 20 00 22.8 116.8 994 35 3 Image Chart
2001 9 20 06 22.9 115.3 1002 0 2 Image Chart
2001 9 20 12 22.6 114.2 1006 0 2 Image Chart
2001 9 20 18 22.5 113.2 1006 0 2 Image Chart
2001 9 21 00 22.9 111.5 1008 0 2 Image Chart
Japan Meteorological Agency Best Track Data | Correction Date : 2002-01-24
< Typhoon 200115 2001 Season Typhoon 200117 >

Help